Time;durP1;ratioP1;P1;durP2;ratioP2;P2;SDS_P1;SDS_P2;PMS_P1;PMS_P2;Temp;Humidity;BMP_temperature;BMP_pressure;BME280_temperature;BME280_humidity;BME280_pressure;Samples;Min_cycle;Max_cycle;Signal;HPM_P1;HPM_P2
2022/01/12 00:01:06;;;;;;;33.53;19.63;;;;;;;1.47;100.00;103378.25;5073276;28;20021;-69
2022/01/12 00:03:33;;;;;;;35.08;21.20;;;;;;;1.47;100.00;103396.50;5073198;28;20024;-70
2022/01/12 00:06:00;;;;;;;36.10;20.80;;;;;;;1.47;100.00;103400.78;5073315;28;20024;-70
2022/01/12 00:08:25;;;;;;;36.30;21.35;;;;;;;1.48;100.00;103400.00;5073048;28;20036;-70
2022/01/12 00:10:51;;;;;;;35.92;20.58;;;;;;;1.51;100.00;103395.94;5072891;28;20016;-69
2022/01/12 00:13:17;;;;;;;34.67;20.77;;;;;;;1.52;100.00;103404.69;5073497;28;20037;-70
2022/01/12 00:15:42;;;;;;;35.75;20.70;;;;;;;1.52;100.00;103415.13;5071563;28;20089;-70
2022/01/12 00:18:07;;;;;;;34.22;20.75;;;;;;;1.53;100.00;103406.50;5072852;28;20116;-70
2022/01/12 00:20:33;;;;;;;36.05;20.50;;;;;;;1.54;100.00;103413.53;5073439;28;20025;-69
2022/01/12 00:22:58;;;;;;;34.60;20.75;;;;;;;1.56;100.00;103411.97;5072709;28;20020;-70
2022/01/12 00:25:28;;;;;;;37.42;22.35;;;;;;;1.56;100.00;103411.97;5073141;28;20074;-69
2022/01/12 00:33:22;;;;;;;36.38;22.02;;;;;;;1.61;100.00;103415.84;5069238;28;20066;-70
2022/01/12 00:35:53;;;;;;;36.10;22.00;;;;;;;1.61;100.00;103423.69;5072701;28;20108;-70
2022/01/12 00:38:21;;;;;;;36.03;21.05;;;;;;;1.61;100.00;103421.06;5072893;28;20431;-70
2022/01/12 00:40:53;;;;;;;36.33;22.13;;;;;;;1.63;100.00;103437.78;5072752;28;20036;-69
2022/01/12 00:43:20;;;;;;;36.92;22.55;;;;;;;1.63;100.00;103434.25;5072670;28;20047;-70
2022/01/12 00:45:46;;;;;;;36.65;22.48;;;;;;;1.56;100.00;103441.56;5072839;28;20100;-70
2022/01/12 00:48:16;;;;;;;36.15;23.10;;;;;;;1.45;100.00;103444.06;5073058;28;20036;-71
2022/01/12 00:50:43;;;;;;;38.20;23.30;;;;;;;1.33;100.00;103442.25;5072554;28;20028;-71
2022/01/12 00:53:08;;;;;;;40.30;24.67;;;;;;;1.28;100.00;103454.00;5072805;28;20025;-71
2022/01/12 00:55:35;;;;;;;39.22;25.33;;;;;;;1.21;100.00;103459.50;5072756;28;20020;-70
2022/01/12 00:58:01;;;;;;;42.20;25.92;;;;;;;1.15;100.00;103456.34;5072034;28;20126;-70
2022/01/12 01:00:27;;;;;;;41.47;26.20;;;;;;;1.08;100.00;103454.94;5072704;28;20383;-71
2022/01/12 01:02:54;;;;;;;41.22;26.17;;;;;;;1.01;100.00;103456.09;5068753;28;20024;-70
2022/01/12 01:05:23;;;;;;;44.08;28.05;;;;;;;0.97;100.00;103451.41;5072650;28;20021;-71
2022/01/12 01:07:50;;;;;;;47.40;30.00;;;;;;;0.91;100.00;103457.81;5072316;28;20056;-71
2022/01/12 01:10:27;;;;;;;47.53;30.27;;;;;;;0.86;100.00;103471.34;5072703;28;20021;-71
2022/01/12 01:12:53;;;;;;;48.47;30.08;;;;;;;0.86;100.00;103478.25;5068732;28;20078;-70
2022/01/12 01:15:27;;;;;;;46.38;29.77;;;;;;;0.83;100.00;103472.75;5072482;28;20028;-71
2022/01/12 01:26:04;;;;;;;52.60;33.65;;;;;;;0.81;100.00;103453.47;5074207;28;20047;-70
2022/01/12 01:28:29;;;;;;;53.83;34.80;;;;;;;0.79;100.00;103452.44;5076760;28;20025;-70
2022/01/12 01:30:55;;;;;;;58.03;36.03;;;;;;;0.80;100.00;103449.97;5076435;28;20033;-70
2022/01/12 01:33:21;;;;;;;56.70;35.17;;;;;;;0.83;100.00;103444.09;5075965;28;20017;-71
2022/01/12 01:35:53;;;;;;;50.33;32.22;;;;;;;0.72;100.00;103455.31;5076522;28;20028;-70
2022/01/12 01:38:18;;;;;;;51.88;34.13;;;;;;;0.72;100.00;103473.53;5075863;28;20028;-70
2022/01/12 01:40:43;;;;;;;53.85;35.30;;;;;;;0.69;100.00;103468.97;5075998;28;20046;-71
2022/01/12 01:53:54;;;;;;;56.85;37.80;;;;;;;0.65;100.00;103480.78;5072185;28;20067;-70
2022/01/12 01:56:20;;;;;;;57.70;37.95;;;;;;;0.64;100.00;103467.66;5075807;28;20033;-70
2022/01/12 01:58:47;;;;;;;62.45;41.65;;;;;;;0.65;100.00;103449.53;5075614;28;20499;-70
2022/01/12 02:01:12;;;;;;;59.25;38.20;;;;;;;0.64;100.00;103452.94;5075541;28;20021;-70
2022/01/12 02:03:37;;;;;;;58.55;37.55;;;;;;;0.65;100.00;103452.16;5075509;28;20036;-70
2022/01/12 02:06:05;;;;;;;61.22;39.17;;;;;;;0.66;100.00;103437.47;5075600;28;20029;-71
2022/01/12 02:08:30;;;;;;;59.10;37.50;;;;;;;0.61;100.00;103437.06;5075401;28;20017;-71
2022/01/12 02:10:58;;;;;;;62.50;40.60;;;;;;;0.61;100.00;103446.56;5075437;28;20031;-70
2022/01/12 02:13:24;;;;;;;59.20;37.78;;;;;;;0.60;100.00;103452.56;5071501;28;20032;-70
2022/01/12 02:15:51;;;;;;;59.92;38.85;;;;;;;0.62;100.00;103444.06;5075197;28;20024;-69
2022/01/12 02:40:29;;;;;;;60.90;39.20;;;;;;;0.61;100.00;103477.78;5070987;28;20052;-70
2022/01/12 02:43:43;;;;;;;58.60;38.22;;;;;;;0.60;100.00;103487.31;5071277;28;20383;-70
2022/01/12 02:53:46;;;;;;;61.08;39.15;;;;;;;0.57;100.00;103484.44;5074806;28;20055;-70
2022/01/12 02:56:17;;;;;;;60.60;40.40;;;;;;;0.61;100.00;103483.94;5074569;28;20468;-70
2022/01/12 02:58:44;;;;;;;59.90;39.38;;;;;;;0.63;100.00;103492.78;5074029;28;20080;-70
2022/01/12 03:03:39;;;;;;;61.05;39.45;;;;;;;0.62;100.00;103487.44;5074294;28;20434;-70
2022/01/12 03:06:07;;;;;;;64.47;40.20;;;;;;;0.59;100.00;103501.09;5074752;28;20029;-71
2022/01/12 03:08:36;;;;;;;61.10;39.60;;;;;;;0.64;100.00;103509.31;5074443;28;20024;-71
2022/01/12 03:11:02;;;;;;;64.45;41.75;;;;;;;0.63;100.00;103518.81;5074348;28;20024;-71
2022/01/12 03:13:27;;;;;;;61.25;40.85;;;;;;;0.60;100.00;103521.16;5074236;28;20485;-71
2022/01/12 03:15:53;;;;;;;64.10;41.22;;;;;;;0.62;100.00;103527.41;5073018;28;20038;-70
2022/01/12 03:18:18;;;;;;;61.92;40.80;;;;;;;0.63;100.00;103531.84;5074230;28;20107;-70
2022/01/12 03:20:45;;;;;;;65.18;41.60;;;;;;;0.61;100.00;103527.25;5074309;28;20115;-71
2022/01/12 03:23:13;;;;;;;63.55;41.20;;;;;;;0.63;100.00;103539.66;5074093;28;20023;-70
2022/01/12 03:25:38;;;;;;;66.75;41.47;;;;;;;0.64;100.00;103537.94;5074061;28;20025;-70
2022/01/12 03:28:06;;;;;;;68.55;43.58;;;;;;;0.65;100.00;103542.38;5073975;28;20028;-70
2022/01/12 03:30:40;;;;;;;65.40;42.47;;;;;;;0.62;100.00;103540.41;5074099;28;20033;-71
2022/01/12 03:33:12;;;;;;;64.55;42.85;;;;;;;0.62;100.00;103535.22;5073849;28;20097;-70
2022/01/12 03:36:11;;;;;;;70.70;43.13;;;;;;;0.64;100.00;103538.88;5073731;28;20078;-71
2022/01/12 03:38:35;;;;;;;66.47;42.83;;;;;;;0.60;100.00;103531.56;5071145;28;20047;-70
2022/01/12 03:41:00;;;;;;;65.30;42.58;;;;;;;0.61;100.00;103538.63;5073165;28;20391;-71
2022/01/12 03:43:25;;;;;;;69.05;44.60;;;;;;;0.58;100.00;103529.59;5073022;28;20028;-71
2022/01/12 03:45:52;;;;;;;70.75;44.47;;;;;;;0.56;100.00;103526.88;5073906;28;20021;-70
2022/01/12 03:48:17;;;;;;;74.13;45.00;;;;;;;0.55;100.00;103518.91;5073468;28;20448;-70
2022/01/12 03:50:42;;;;;;;75.57;45.60;;;;;;;0.56;100.00;103525.97;5073666;28;20032;-71
2022/01/12 03:53:08;;;;;;;75.60;46.03;;;;;;;0.56;100.00;103526.88;5073474;28;20068;-71
2022/01/12 03:55:33;;;;;;;77.35;46.20;;;;;;;0.57;100.00;103528.69;5073845;28;20052;-71
2022/01/12 03:57:59;;;;;;;78.40;47.22;;;;;;;0.53;100.00;103529.19;5073380;28;20079;-68
2022/01/12 04:00:24;;;;;;;78.85;47.05;;;;;;;0.55;100.00;103540.66;5073099;28;20403;-67
2022/01/12 04:02:49;;;;;;;81.43;48.03;;;;;;;0.52;100.00;103556.00;5073260;28;20036;-69
2022/01/12 04:05:41;;;;;;;85.05;49.70;;;;;;;0.50;100.00;103557.56;5073484;28;20068;-66
2022/01/12 04:08:20;;;;;;;87.47;48.80;;;;;;;0.51;100.00;103547.28;5070896;28;20645;-70
2022/01/12 04:11:03;;;;;;;93.40;52.25;;;;;;;0.52;100.00;103550.78;5073101;28;20028;-67
2022/01/12 04:13:30;;;;;;;95.20;52.63;;;;;;;0.53;100.00;103547.44;5069869;28;20489;-66
2022/01/12 04:16:05;;;;;;;93.72;52.05;;;;;;;0.58;100.00;103556.53;5069119;28;20033;-69
2022/01/12 04:18:32;;;;;;;97.30;52.67;;;;;;;0.58;100.00;103556.53;5069715;28;20081;-66
2022/01/12 04:21:01;;;;;;;97.82;53.10;;;;;;;0.59;100.00;103542.75;5073429;28;20382;-71
2022/01/12 04:23:26;;;;;;;99.82;53.70;;;;;;;0.60;100.00;103549.78;5069153;28;20016;-71
2022/01/12 04:26:00;;;;;;;100.10;54.70;;;;;;;0.60;100.00;103549.78;5072867;28;20035;-67
2022/01/12 04:28:27;;;;;;;104.05;55.17;;;;;;;0.59;100.00;103558.38;5068965;28;20472;-71
2022/01/12 04:30:54;;;;;;;99.30;53.50;;;;;;;0.59;100.00;103553.16;5072987;28;20024;-71
2022/01/12 04:33:20;;;;;;;99.35;55.20;;;;;;;0.59;100.00;103552.25;5072729;28;20032;-70
2022/01/12 04:35:48;;;;;;;95.25;54.05;;;;;;;0.63;100.00;103555.25;5072714;28;20486;-66
2022/01/12 04:38:15;;;;;;;102.13;55.67;;;;;;;0.61;100.00;103550.69;5072699;28;20028;-66
2022/01/12 04:40:41;;;;;;;98.85;54.83;;;;;;;0.66;100.00;103545.13;5072676;28;20463;-69
2022/01/12 04:43:08;;;;;;;108.93;56.67;;;;;;;0.63;100.00;103549.16;5072665;28;20029;-71
2022/01/12 04:45:41;;;;;;;105.57;55.42;;;;;;;0.65;100.00;103543.28;5073054;28;20032;-71
2022/01/12 04:50:43;;;;;;;97.43;54.58;;;;;;;0.64;100.00;103548.34;5072453;28;19931;-71
2022/01/12 04:53:10;;;;;;;103.55;54.33;;;;;;;0.64;100.00;103544.09;5072571;28;20118;-69
2022/01/12 04:55:35;;;;;;;102.57;55.05;;;;;;;0.64;100.00;103536.28;5072837;28;20095;-71
2022/01/12 04:58:01;;;;;;;103.10;55.35;;;;;;;0.64;100.00;103537.94;5072311;28;20143;-71
2022/01/12 05:00:28;;;;;;;103.68;55.13;;;;;;;0.64;100.00;103525.84;5072330;28;20494;-71
2022/01/12 05:13:37;;;;;;;106.72;55.72;;;;;;;0.61;100.00;103535.06;5069733;28;20406;-67
2022/01/12 05:16:04;;;;;;;104.10;55.60;;;;;;;0.60;100.00;103539.38;5072306;28;20546;-69
2022/01/12 05:18:31;;;;;;;105.32;57.10;;;;;;;0.63;100.00;103541.34;5072632;28;20024;-66
2022/01/12 05:20:57;;;;;;;105.45;56.13;;;;;;;0.63;100.00;103539.66;5068561;28;20094;-67
2022/01/12 05:23:23;;;;;;;111.70;56.67;;;;;;;0.62;100.00;103545.63;5072321;28;20020;-71
2022/01/12 05:25:51;;;;;;;112.93;56.33;;;;;;;0.63;100.00;103539.66;5072486;28;20049;-66
2022/01/12 05:28:16;;;;;;;107.45;56.53;;;;;;;0.67;100.00;103538.22;5072112;28;20390;-67
2022/01/12 05:30:42;;;;;;;110.15;56.42;;;;;;;0.65;100.00;103545.00;5072383;28;20025;-70
2022/01/12 05:33:07;;;;;;;107.00;56.13;;;;;;;0.70;100.00;103551.53;5072310;28;20028;-67
2022/01/12 05:35:34;;;;;;;109.68;56.75;;;;;;;0.71;100.00;103555.94;5072065;28;20036;-66
2022/01/12 05:38:02;;;;;;;112.70;57.63;;;;;;;0.67;100.00;103559.03;5072385;28;20064;-66
2022/01/12 05:40:28;;;;;;;104.40;55.47;;;;;;;0.64;100.00;103571.78;5068470;28;20542;-67
2022/01/12 05:42:55;;;;;;;109.30;56.75;;;;;;;0.64;100.00;103566.59;5072093;28;20100;-70
2022/01/12 05:45:21;;;;;;;109.35;57.55;;;;;;;0.63;100.00;103565.69;5071827;28;20063;-71
2022/01/12 05:50:14;;;;;;;113.20;57.78;;;;;;;0.63;100.00;103573.50;5072025;28;20379;-66
2022/01/12 05:52:40;;;;;;;111.32;57.85;;;;;;;0.67;100.00;103569.44;5072131;28;20031;-67
2022/01/12 05:55:07;;;;;;;116.63;58.88;;;;;;;0.66;100.00;103565.03;5072235;28;20032;-66
2022/01/12 05:57:33;;;;;;;115.43;58.67;;;;;;;0.66;100.00;103568.56;5071807;28;20086;-71
2022/01/12 05:59:59;;;;;;;112.78;57.30;;;;;;;0.68;100.00;103564.41;5071775;28;20041;-71
2022/01/12 06:02:25;;;;;;;107.82;57.00;;;;;;;0.66;100.00;103558.13;5071916;28;20044;-71
2022/01/12 06:04:51;;;;;;;115.90;58.13;;;;;;;0.67;100.00;103565.19;5072819;28;20104;-71
2022/01/12 06:07:16;;;;;;;119.93;58.70;;;;;;;0.66;100.00;103567.66;5075758;28;20125;-72
2022/01/12 06:09:42;;;;;;;118.63;58.38;;;;;;;0.66;100.00;103576.38;5075395;28;20024;-72
2022/01/12 06:12:07;;;;;;;119.22;59.65;;;;;;;0.64;100.00;103572.72;5075092;28;20025;-71
2022/01/12 06:14:33;;;;;;;119.68;58.45;;;;;;;0.65;100.00;103564.13;5075301;28;20046;-72
2022/01/12 06:16:58;;;;;;;115.22;57.45;;;;;;;0.67;100.00;103573.00;5075444;28;20048;-71
2022/01/12 06:19:24;;;;;;;116.68;58.30;;;;;;;0.68;100.00;103576.50;5075198;28;20103;-71
2022/01/12 06:21:50;;;;;;;123.72;59.75;;;;;;;0.67;100.00;103582.47;5075293;28;20039;-72
2022/01/12 06:24:15;;;;;;;126.05;60.38;;;;;;;0.68;100.00;103594.72;5075430;28;20037;-71
2022/01/12 06:26:42;;;;;;;128.38;61.35;;;;;;;0.68;100.00;103595.66;5075387;28;20032;-71
2022/01/12 06:31:37;;;;;;;129.95;62.45;;;;;;;0.70;100.00;103603.59;5074939;28;20032;-72
2022/01/12 06:34:02;;;;;;;129.25;62.25;;;;;;;0.71;100.00;103609.72;5074845;28;20036;-71
2022/01/12 06:36:27;;;;;;;131.05;62.33;;;;;;;0.72;100.00;103606.34;5075415;28;20021;-71
2022/01/12 06:38:53;;;;;;;135.45;62.58;;;;;;;0.73;100.00;103613.34;5074794;28;20025;-68
2022/01/12 06:41:20;;;;;;;135.25;62.40;;;;;;;0.73;100.00;103621.16;5074769;28;20035;-67
2022/01/12 06:43:45;;;;;;;141.63;64.43;;;;;;;0.71;100.00;103627.94;5074988;28;20054;-70
2022/01/12 06:46:13;;;;;;;136.27;62.92;;;;;;;0.73;100.00;103628.97;5074573;28;20032;-70
2022/01/12 06:48:39;;;;;;;137.63;63.17;;;;;;;0.75;100.00;103633.56;5074581;28;20025;-67
2022/01/12 06:51:04;;;;;;;137.82;64.43;;;;;;;0.79;100.00;103639.97;5066438;28;20038;-70
2022/01/12 06:53:32;;;;;;;144.05;64.43;;;;;;;0.78;100.00;103630.31;5072932;28;20064;-67
2022/01/12 06:55:58;;;;;;;150.38;66.32;;;;;;;0.79;100.00;103621.75;5071112;28;20369;-67
2022/01/12 06:58:23;;;;;;;141.10;64.88;;;;;;;0.79;100.00;103619.13;5078891;28;20125;-68
2022/01/12 07:00:48;;;;;;;137.02;62.70;;;;;;;0.81;100.00;103630.59;5071754;28;20055;-69
2022/01/12 07:03:14;;;;;;;140.32;65.22;;;;;;;0.78;100.00;103640.75;5069908;28;20032;-69
2022/01/12 07:05:39;;;;;;;135.15;63.97;;;;;;;0.80;100.00;103636.56;5067537;28;20179;-69
2022/01/12 07:08:05;;;;;;;131.32;62.65;;;;;;;0.79;100.00;103632.16;5071210;28;20024;-71
2022/01/12 07:10:30;;;;;;;130.43;61.20;;;;;;;0.78;100.00;103638.13;5070267;28;20043;-70
2022/01/12 07:12:55;;;;;;;136.60;61.65;;;;;;;0.78;100.00;103654.66;5075966;28;20377;-71
2022/01/12 07:15:20;;;;;;;139.68;65.35;;;;;;;0.80;100.00;103657.41;5074077;28;20076;-69
2022/01/12 07:17:47;;;;;;;133.27;61.92;;;;;;;0.81;100.00;103654.94;5072936;28;20533;-70
2022/01/12 07:20:12;;;;;;;139.00;63.10;;;;;;;0.82;100.00;103646.34;5071148;28;20382;-71
2022/01/12 07:22:38;;;;;;;133.75;63.70;;;;;;;0.84;100.00;103654.28;5071614;28;20021;-71
2022/01/12 07:25:03;;;;;;;132.98;61.88;;;;;;;0.89;100.00;103658.25;5071343;28;20098;-70
2022/01/12 07:27:29;;;;;;;138.00;62.20;;;;;;;0.88;100.00;103656.41;5069885;28;20023;-69
2022/01/12 07:29:54;;;;;;;135.27;64.03;;;;;;;0.86;100.00;103663.19;5075921;28;20020;-71
2022/01/12 07:32:19;;;;;;;139.82;63.65;;;;;;;0.85;100.00;103664.84;5076655;28;20031;-71
2022/01/12 07:34:45;;;;;;;133.93;63.10;;;;;;;0.86;100.00;103657.97;5075090;28;20033;-70
2022/01/12 07:37:10;;;;;;;139.32;61.67;;;;;;;0.85;100.00;103675.25;5072598;28;20103;-70
2022/01/12 07:39:35;;;;;;;147.25;66.13;;;;;;;0.88;100.00;103687.66;5074385;28;20464;-70
2022/01/12 07:42:01;;;;;;;146.73;64.70;;;;;;;0.90;100.00;103686.09;5073952;28;20387;-71
2022/01/12 07:44:26;;;;;;;146.18;65.05;;;;;;;0.92;100.00;103694.97;5066929;28;20464;-70
2022/01/12 07:46:52;;;;;;;139.95;64.68;;;;;;;0.96;100.00;103696.16;5072703;28;20035;-71
2022/01/12 07:49:17;;;;;;;141.15;62.60;;;;;;;0.96;100.00;103701.34;5072088;28;20020;-68
2022/01/12 07:51:42;;;;;;;145.70;63.42;;;;;;;0.95;100.00;103694.34;5077633;28;20035;-70
2022/01/12 07:54:08;;;;;;;135.95;60.72;;;;;;;1.00;100.00;103704.38;5076451;28;20037;-68
2022/01/12 07:56:33;;;;;;;140.63;60.50;;;;;;;0.98;100.00;103705.94;5066382;28;20017;-72
2022/01/12 07:58:58;;;;;;;139.98;60.70;;;;;;;0.99;100.00;103712.97;5073061;28;20440;-68
2022/01/12 08:01:24;;;;;;;135.55;59.50;;;;;;;1.04;100.00;103716.91;5068597;28;20402;-70
2022/01/12 08:03:50;;;;;;;141.30;63.10;;;;;;;1.00;100.00;103727.81;5076352;28;20438;-69
2022/01/12 08:06:16;;;;;;;137.38;58.63;;;;;;;1.02;100.00;103734.09;5069850;28;20031;-68
2022/01/12 08:08:41;;;;;;;141.30;60.95;;;;;;;0.99;100.00;103733.81;5077047;28;20561;-70
2022/01/12 08:11:06;;;;;;;150.43;64.97;;;;;;;1.02;100.00;103728.88;5067615;28;20376;-69
2022/01/12 08:13:32;;;;;;;164.35;63.40;;;;;;;1.03;100.00;103738.53;5064730;28;20558;-69
2022/01/12 08:15:57;;;;;;;175.45;64.90;;;;;;;1.03;100.00;103743.75;5071342;28;20028;-70
2022/01/12 08:18:22;;;;;;;156.80;62.60;;;;;;;1.10;100.00;103753.00;5067660;28;20032;-67
2022/01/12 08:20:48;;;;;;;169.07;68.85;;;;;;;1.12;100.00;103761.91;5060399;28;20032;-69
2022/01/12 08:23:13;;;;;;;180.90;65.95;;;;;;;1.16;100.00;103755.25;5074819;28;20024;-70
2022/01/12 08:25:40;;;;;;;169.80;66.25;;;;;;;1.25;100.00;103758.66;5066935;28;20032;-70
2022/01/12 08:28:06;;;;;;;312.80;74.22;;;;;;;1.22;100.00;103761.00;5073350;28;20399;-71
2022/01/12 08:30:34;;;;;;;262.92;70.38;;;;;;;1.23;100.00;103760.25;5065410;28;20424;-71
2022/01/12 08:33:00;;;;;;;235.90;65.45;;;;;;;1.23;100.00;103760.25;5073868;28;20031;-71
2022/01/12 08:35:27;;;;;;;230.60;64.90;;;;;;;1.25;100.00;103756.06;5074216;28;20024;-71
2022/01/12 08:37:53;;;;;;;457.63;82.07;;;;;;;1.23;100.00;103756.72;5074699;28;20115;-68
2022/01/12 08:40:19;;;;;;;400.15;78.15;;;;;;;1.26;100.00;103759.59;5073249;28;20095;-67
2022/01/12 08:42:44;;;;;;;382.25;77.95;;;;;;;1.31;100.00;103761.84;5074244;28;20025;-70
2022/01/12 08:45:11;;;;;;;350.40;75.70;;;;;;;1.33;100.00;103757.66;5072635;28;20033;-71
2022/01/12 08:47:37;;;;;;;278.73;70.75;;;;;;;1.39;100.00;103758.19;5069084;28;20075;-68
2022/01/12 08:50:04;;;;;;;333.33;77.22;;;;;;;1.40;100.00;103761.75;5072368;28;20048;-68
2022/01/12 08:52:30;;;;;;;246.43;71.25;;;;;;;1.46;100.00;103758.78;5072713;28;20040;-71
2022/01/12 08:54:57;;;;;;;327.70;74.57;;;;;;;1.49;100.00;103765.16;5072701;28;20463;-67
2022/01/12 08:57:22;;;;;;;277.08;72.38;;;;;;;1.48;100.00;103758.09;5072403;28;20028;-68
2022/01/12 08:59:47;;;;;;;466.70;85.18;;;;;;;1.48;100.00;103759.81;5072201;28;20052;-67
2022/01/12 09:02:14;;;;;;;470.67;83.40;;;;;;;1.52;100.00;103774.94;5072910;28;20032;-71
2022/01/12 09:04:41;;;;;;;329.65;77.03;;;;;;;1.60;100.00;103770.41;5072596;28;20094;-70
2022/01/12 09:07:07;;;;;;;364.13;78.40;;;;;;;1.61;100.00;103777.44;5068738;28;20471;-67
2022/01/12 09:09:33;;;;;;;423.50;76.85;;;;;;;1.63;100.00;103783.69;5072763;28;20052;-68
2022/01/12 09:11:58;;;;;;;384.30;77.95;;;;;;;1.67;100.00;103797.13;5072310;28;20020;-66
2022/01/12 09:14:23;;;;;;;404.42;73.55;;;;;;;1.70;100.00;103788.66;5072271;28;20120;-67
2022/01/12 09:16:57;;;;;;;276.05;66.38;;;;;;;1.80;100.00;103801.75;5072790;28;20017;-68
2022/01/12 09:19:23;;;;;;;227.88;67.22;;;;;;;1.86;100.00;103804.88;5072332;28;20033;-68
2022/01/12 09:21:48;;;;;;;221.27;65.95;;;;;;;1.96;100.00;103806.59;5072449;28;20113;-67
2022/01/12 09:24:14;;;;;;;189.68;58.10;;;;;;;2.00;100.00;103808.69;5072392;28;20071;-71
2022/01/12 09:26:39;;;;;;;196.98;60.53;;;;;;;2.06;100.00;103805.72;5072553;28;20048;-71
2022/01/12 09:29:05;;;;;;;279.77;58.58;;;;;;;2.05;100.00;103807.41;5072528;28;20512;-72
2022/01/12 09:31:30;;;;;;;204.90;57.92;;;;;;;2.08;100.00;103823.34;5072373;28;20035;-72
2022/01/12 09:33:55;;;;;;;319.10;65.68;;;;;;;2.13;100.00;103826.34;5072420;28;20082;-72
2022/01/12 09:36:21;;;;;;;278.10;60.25;;;;;;;2.14;100.00;103822.03;5071955;28;20028;-72
2022/01/12 09:38:46;;;;;;;275.98;53.50;;;;;;;2.08;100.00;103827.63;5072535;28;20045;-71
2022/01/12 09:41:11;;;;;;;278.83;52.10;;;;;;;2.05;100.00;103832.56;5075242;28;20367;-72
2022/01/12 09:43:39;;;;;;;174.18;50.67;;;;;;;2.14;100.00;103822.03;5076196;28;20378;-72
2022/01/12 09:46:04;;;;;;;287.15;54.38;;;;;;;2.12;100.00;103818.38;5076196;28;20061;-71
2022/01/12 09:48:34;;;;;;;331.33;57.30;;;;;;;2.08;100.00;103831.16;5075793;28;20375;-72
2022/01/12 09:51:02;;;;;;;266.13;54.17;;;;;;;1.98;100.00;103825.00;5075024;28;20052;-72
2022/01/12 09:53:33;;;;;;;240.00;54.60;;;;;;;1.99;100.00;103832.06;5075858;28;20028;-71
2022/01/12 09:55:58;;;;;;;246.60;52.75;;;;;;;2.06;100.00;103830.09;5075745;28;20390;-71
2022/01/12 09:58:23;;;;;;;192.43;52.58;;;;;;;2.12;100.00;103834.94;5075574;28;20024;-71
2022/01/12 10:01:00;;;;;;;216.32;53.25;;;;;;;2.20;100.00;103839.13;5075730;28;20045;-72
2022/01/12 10:03:27;;;;;;;315.77;55.25;;;;;;;2.20;100.00;103848.66;5075433;28;20029;-71
2022/01/12 10:05:53;;;;;;;186.88;48.25;;;;;;;2.27;100.00;103851.00;5075667;28;20067;-72
2022/01/12 10:08:18;;;;;;;169.82;50.20;;;;;;;2.33;100.00;103862.00;5075680;28;20537;-72
2022/01/12 10:11:05;;;;;;;243.30;49.92;;;;;;;2.31;100.00;103868.78;5075242;28;20028;-71
2022/01/12 10:13:32;;;;;;;257.05;47.90;;;;;;;2.31;100.00;103874.00;5072853;28;20025;-72
2022/01/12 10:16:08;;;;;;;164.55;43.80;;;;;;;2.35;100.00;103873.47;5075819;28;20032;-71
2022/01/12 10:18:46;;;;;;;217.90;44.58;;;;;;;2.34;100.00;103865.50;5071090;28;20067;-71
2022/01/12 10:21:12;;;;;;;254.57;46.05;;;;;;;2.32;100.00;103864.47;5072441;28;20155;-71
2022/01/12 10:23:40;;;;;;;282.60;45.30;;;;;;;2.33;100.00;103862.00;5074805;28;20103;-71
2022/01/12 10:26:05;;;;;;;230.27;44.05;;;;;;;2.34;100.00;103863.81;5075200;28;20112;-72
2022/01/12 10:28:30;;;;;;;351.60;49.25;;;;;;;2.35;100.00;103852.59;5075199;28;20070;-71
2022/01/12 10:30:58;;;;;;;208.05;42.33;;;;;;;2.38;100.00;103860.69;5074875;28;20067;-71
2022/01/12 10:33:29;;;;;;;269.50;44.45;;;;;;;2.39;100.00;103849.47;5075137;28;20029;-71
2022/01/12 10:35:58;;;;;;;234.18;43.97;;;;;;;2.44;100.00;103845.53;5075381;28;20115;-71
2022/01/12 10:38:24;;;;;;;360.85;48.28;;;;;;;2.46;100.00;103842.16;5074979;28;20509;-71
2022/01/12 10:40:49;;;;;;;260.20;42.88;;;;;;;2.46;100.00;103847.38;5074964;28;20052;-71
2022/01/12 10:43:36;;;;;;;332.17;44.70;;;;;;;2.48;100.00;103851.03;5075087;28;20428;-71
2022/01/12 10:46:10;;;;;;;234.50;41.78;;;;;;;2.48;100.00;103853.66;5070780;28;20032;-70
2022/01/12 10:48:39;;;;;;;311.77;46.65;;;;;;;2.41;100.00;103855.72;5071319;28;20084;-71
2022/01/12 10:51:05;;;;;;;296.60;42.63;;;;;;;2.40;100.00;103856.53;5070921;28;20032;-71
2022/01/12 10:53:35;;;;;;;202.38;40.13;;;;;;;2.44;100.00;103858.59;5074602;28;20012;-71
2022/01/12 10:56:06;;;;;;;206.27;43.30;;;;;;;2.44;100.00;103855.06;5074964;28;20024;-71
2022/01/12 10:58:33;;;;;;;149.25;39.80;;;;;;;2.46;100.00;103863.03;5070778;28;20085;-71
2022/01/12 11:00:58;;;;;;;141.82;39.67;;;;;;;2.44;100.00;103866.41;5074342;28;20043;-71
2022/01/12 11:03:24;;;;;;;164.15;40.70;;;;;;;2.45;100.00;103862.13;5074760;28;20047;-71
2022/01/12 11:05:50;;;;;;;116.32;41.80;;;;;;;2.43;100.00;103877.69;5074537;28;20021;-71
2022/01/12 11:08:18;;;;;;;93.97;37.78;;;;;;;2.51;100.00;103866.97;5074360;28;20031;-71
2022/01/12 11:10:45;;;;;;;102.78;40.10;;;;;;;2.56;100.00;103860.44;5072979;28;20364;-71
2022/01/12 11:13:12;;;;;;;96.45;38.08;;;;;;;2.60;100.00;103863.44;5074279;28;20428;-71
2022/01/12 11:15:37;;;;;;;104.70;39.47;;;;;;;2.53;100.00;103863.69;5074141;28;20059;-71
2022/01/12 11:18:03;;;;;;;97.55;37.75;;;;;;;2.55;100.00;103859.53;5065205;28;20063;-72
2022/01/12 11:20:33;;;;;;;97.20;38.30;;;;;;;2.59;100.00;103850.22;5067169;28;20576;-71
2022/01/12 11:23:08;;;;;;;89.50;38.45;;;;;;;2.61;100.00;103864.38;5068135;28;20020;-71
2022/01/12 11:25:38;;;;;;;87.30;37.75;;;;;;;2.66;100.00;103862.13;5080292;28;20040;-71
2022/01/12 11:28:17;;;;;;;85.05;36.95;;;;;;;2.73;100.00;103877.53;5074382;28;20079;-72
2022/01/12 11:30:51;;;;;;;84.85;37.72;;;;;;;2.70;100.00;103879.91;5071549;28;20437;-70
2022/01/12 11:33:19;;;;;;;86.38;37.72;;;;;;;2.74;100.00;103874.16;5074197;28;20032;-71
2022/01/12 11:35:47;;;;;;;82.78;36.22;;;;;;;2.75;100.00;103871.69;5071254;28;20028;-71
2022/01/12 11:38:30;;;;;;;80.88;37.50;;;;;;;2.73;100.00;103872.31;5077264;28;20036;-71
2022/01/12 11:41:20;;;;;;;80.03;36.22;;;;;;;2.81;100.00;103878.19;5069943;28;20603;-70
2022/01/12 11:44:03;;;;;;;78.35;35.75;;;;;;;2.78;100.00;103879.78;5071596;28;20055;-70
2022/01/12 11:46:42;;;;;;;69.03;32.72;;;;;;;2.79;100.00;103873.72;5069585;28;20028;-72
2022/01/12 11:49:08;;;;;;;69.75;33.67;;;;;;;2.77;100.00;103875.31;5077047;28;20414;-71
2022/01/12 11:51:36;;;;;;;74.18;34.95;;;;;;;2.69;100.00;103863.28;5069520;28;20051;-71
2022/01/12 11:54:22;;;;;;;69.18;34.05;;;;;;;2.68;100.00;103853.66;5071446;28;20520;-70
2022/01/12 11:56:53;;;;;;;72.78;34.35;;;;;;;2.59;100.00;103851.19;5075109;28;20020;-70
2022/01/12 11:59:20;;;;;;;77.32;36.20;;;;;;;2.51;100.00;103851.31;5070656;28;20028;-70
2022/01/12 12:02:04;;;;;;;75.53;35.20;;;;;;;2.49;100.00;103860.69;5072470;28;20051;-70
2022/01/12 12:04:32;;;;;;;75.22;36.78;;;;;;;2.42;100.00;103864.50;5072140;28;20062;-70
2022/01/12 12:07:14;;;;;;;68.70;34.10;;;;;;;2.45;100.00;103864.75;5070783;28;20461;-71
2022/01/12 12:09:48;;;;;;;72.13;34.45;;;;;;;2.47;100.00;103863.16;5065054;28;20025;-71
2022/01/12 12:12:22;;;;;;;73.30;35.58;;;;;;;2.39;100.00;103862.53;5071618;28;20074;-70
2022/01/12 12:14:53;;;;;;;73.93;36.03;;;;;;;2.38;100.00;103870.22;5062990;28;20028;-70
2022/01/12 12:17:20;;;;;;;68.93;32.60;;;;;;;2.49;100.00;103868.53;5068801;28;20025;-70
2022/01/12 12:19:47;;;;;;;72.10;34.78;;;;;;;2.53;100.00;103866.28;5068918;28;20379;-70
2022/01/12 12:22:12;;;;;;;72.07;33.65;;;;;;;2.54;100.00;103870.75;5065701;28;20020;-70